createdAt,value
2023-03-06T00:00:16.675Z,84.6
2023-03-06T00:01:17.178Z,84.7
2023-03-06T00:02:16.584Z,84.7
2023-03-06T00:03:17.081Z,84.7
2023-03-06T00:04:16.584Z,84.7
2023-03-06T00:05:17.081Z,84.7
2023-03-06T00:06:16.678Z,84.7
2023-03-06T00:07:17.190Z,84.8
2023-03-06T00:08:16.701Z,84.8
2023-03-06T00:09:17.204Z,84.9
2023-03-06T00:10:16.739Z,84.7
2023-03-06T00:11:17.263Z,84.7
2023-03-06T00:12:17.081Z,84.8
2023-03-06T00:13:16.573Z,84.8
2023-03-06T00:14:17.086Z,84.7
2023-03-06T00:15:16.589Z,84.6
2023-03-06T00:16:17.200Z,84.6
2023-03-06T00:17:16.767Z,84.8
2023-03-06T00:18:17.277Z,84.9
2023-03-06T00:19:16.789Z,85.0
2023-03-06T00:20:17.294Z,85.0
2023-03-06T00:21:16.797Z,85.0
2023-03-06T00:22:17.407Z,85.0
2023-03-06T00:23:16.927Z,85.0
2023-03-06T00:24:17.418Z,85.0
2023-03-06T00:25:16.921Z,85.1
2023-03-06T00:26:17.449Z,85.2
2023-03-06T00:27:16.953Z,85.3
2023-03-06T00:28:17.437Z,85.2
2023-03-06T00:29:17.007Z,85.0
2023-03-06T00:30:16.521Z,85.1
2023-03-06T00:31:17.059Z,85.1
2023-03-06T00:32:16.767Z,85.4
2023-03-06T00:33:17.268Z,85.3
2023-03-06T00:34:16.769Z,85.3
2023-03-06T00:35:17.308Z,85.4
2023-03-06T00:36:16.819Z,85.6
2023-03-06T00:37:17.345Z,85.4
2023-03-06T00:38:16.860Z,85.4
2023-03-06T00:39:17.365Z,85.6
2023-03-06T00:40:16.868Z,85.6
2023-03-06T00:41:17.478Z,85.5
2023-03-06T00:42:16.779Z,85.5
2023-03-06T00:43:17.278Z,85.5
2023-03-06T00:44:16.759Z,85.6
2023-03-06T00:45:17.232Z,85.5
2023-03-06T00:46:16.744Z,85.6
2023-03-06T00:47:17.293Z,85.6
2023-03-06T00:48:16.820Z,85.6
2023-03-06T00:49:17.344Z,85.5
2023-03-06T00:50:16.898Z,85.6
2023-03-06T00:51:17.487Z,85.5
2023-03-06T00:52:17.062Z,85.7
2023-03-06T00:53:16.552Z,85.7
2023-03-06T00:54:17.071Z,85.7
2023-03-06T00:55:16.592Z,85.7
2023-03-06T00:56:20.046Z,85.7
2023-03-06T00:57:16.646Z,85.7
2023-03-06T00:58:17.162Z,85.6
2023-03-06T00:59:16.665Z,85.5
2023-03-06T01:00:17.166Z,85.4
2023-03-06T01:01:16.807Z,85.5
2023-03-06T01:02:17.561Z,85.4
2023-03-06T01:03:17.142Z,85.4
2023-03-06T01:04:16.628Z,85.3
2023-03-06T01:05:17.172Z,85.3
2023-03-06T01:06:16.672Z,85.4
2023-03-06T01:07:17.161Z,85.5
2023-03-06T01:08:16.658Z,85.6
2023-03-06T01:09:17.150Z,85.6
2023-03-06T01:10:16.633Z,85.6
2023-03-06T01:11:17.107Z,85.6
2023-03-06T01:12:16.902Z,85.7
2023-03-06T01:13:17.397Z,85.7
2023-03-06T01:14:16.875Z,85.6
2023-03-06T01:15:17.437Z,85.5
2023-03-06T01:16:17.088Z,85.5
2023-03-06T01:17:16.596Z,85.5
2023-03-06T01:18:17.125Z,85.6
2023-03-06T01:19:16.654Z,85.6
2023-03-06T01:20:17.140Z,85.7
2023-03-06T01:21:16.613Z,85.7
2023-03-06T01:22:17.460Z,85.7
2023-03-06T01:23:16.971Z,85.5
2023-03-06T01:24:16.452Z,85.7
2023-03-06T01:25:16.970Z,85.6
2023-03-06T01:26:16.474Z,85.6
2023-03-06T01:27:16.969Z,85.5
2023-03-06T01:28:16.509Z,85.5
2023-03-06T01:29:17.018Z,85.6
2023-03-06T01:30:16.565Z,85.7
2023-03-06T01:31:17.104Z,85.8
2023-03-06T01:32:16.743Z,85.7
2023-03-06T01:33:17.268Z,85.8
2023-03-06T01:34:16.766Z,85.7
2023-03-06T01:35:17.489Z,85.8
2023-03-06T01:36:17.041Z,85.6
2023-03-06T01:37:16.588Z,85.6
2023-03-06T01:38:17.108Z,85.6
2023-03-06T01:39:16.580Z,85.6
2023-03-06T01:40:17.100Z,85.6
2023-03-06T01:41:16.584Z,85.6
2023-03-06T01:42:17.095Z,85.6
2023-03-06T01:43:16.593Z,85.6
2023-03-06T01:44:17.108Z,85.6
2023-03-06T01:45:16.641Z,85.6
2023-03-06T01:46:17.154Z,85.6
2023-03-06T01:47:16.666Z,85.5
2023-03-06T01:48:17.184Z,85.6
2023-03-06T01:49:16.692Z,85.6
2023-03-06T01:50:17.200Z,85.6
2023-03-06T01:51:16.698Z,85.7
2023-03-06T01:52:16.553Z,85.7
2023-03-06T01:53:17.069Z,85.7
2023-03-06T01:54:16.534Z,85.7
2023-03-06T01:55:17.002Z,85.7
2023-03-06T01:56:16.475Z,85.7
2023-03-06T01:57:16.971Z,85.7
2023-03-06T01:58:16.493Z,85.6
2023-03-06T01:59:16.987Z,85.6
2023-03-06T02:00:16.530Z,85.6
2023-03-06T02:01:17.191Z,85.6
2023-03-06T02:02:17.503Z,85.6
2023-03-06T02:03:17.060Z,85.7
2023-03-06T02:04:16.565Z,85.8
2023-03-06T02:05:17.132Z,85.7
2023-03-06T02:06:16.653Z,85.6
2023-03-06T02:07:17.133Z,85.6
2023-03-06T02:08:16.647Z,85.6
2023-03-06T02:09:17.126Z,85.5
2023-03-06T02:10:16.617Z,85.7
2023-03-06T02:11:17.161Z,85.6
2023-03-06T02:12:17.021Z,85.6
2023-03-06T02:13:16.510Z,85.6
2023-03-06T02:14:17.115Z,85.6
2023-03-06T02:15:16.653Z,85.6
2023-03-06T02:16:17.264Z,85.6
2023-03-06T02:17:16.810Z,85.6
2023-03-06T02:18:17.321Z,85.6
2023-03-06T02:19:16.845Z,85.5
2023-03-06T02:20:17.342Z,85.4
2023-03-06T02:21:16.799Z,85.3
2023-03-06T02:22:16.583Z,85.3
2023-03-06T02:23:17.112Z,85.3
2023-03-06T02:24:16.581Z,85.3
2023-03-06T02:25:17.071Z,85.2
2023-03-06T02:26:16.561Z,85.2
2023-03-06T02:27:17.083Z,85.3
2023-03-06T02:28:16.575Z,85.3
2023-03-06T02:29:17.073Z,85.4
2023-03-06T02:30:16.600Z,85.4
2023-03-06T02:31:17.254Z,85.4
2023-03-06T02:32:17.555Z,85.4
2023-03-06T02:33:17.194Z,85.4
2023-03-06T02:34:16.682Z,85.5
2023-03-06T02:35:17.173Z,85.4
2023-03-06T02:36:16.658Z,85.4
2023-03-06T02:37:17.143Z,85.5
2023-03-06T02:38:16.625Z,85.5
2023-03-06T02:39:17.102Z,85.5
2023-03-06T02:40:16.629Z,85.5
2023-03-06T02:41:17.130Z,85.6
2023-03-06T02:42:17.414Z,85.6
2023-03-06T02:43:16.944Z,85.6
2023-03-06T02:44:17.440Z,85.7
2023-03-06T02:45:16.934Z,85.7
2023-03-06T02:46:17.510Z,85.7
2023-03-06T02:47:17.035Z,85.8
2023-03-06T02:48:16.549Z,86.0
2023-03-06T02:49:17.067Z,85.8
2023-03-06T02:50:16.543Z,85.7
2023-03-06T02:51:17.054Z,85.7
2023-03-06T02:52:17.431Z,85.8
2023-03-06T02:53:16.913Z,85.8
2023-03-06T02:54:17.394Z,85.7
2023-03-06T02:55:16.868Z,85.7
2023-03-06T02:56:17.405Z,85.8
2023-03-06T02:57:16.902Z,85.7
2023-03-06T02:58:17.383Z,86.0
2023-03-06T02:59:16.895Z,86.1
2023-03-06T03:00:17.403Z,86.0
2023-03-06T03:01:16.975Z,86.1
2023-03-06T03:02:16.802Z,86.1
2023-03-06T03:03:17.323Z,85.9
2023-03-06T03:04:16.873Z,85.9
2023-03-06T03:05:17.357Z,85.9
2023-03-06T03:06:16.845Z,85.9
2023-03-06T03:07:17.319Z,85.9
2023-03-06T03:08:16.848Z,85.8
2023-03-06T03:09:17.348Z,85.8
2023-03-06T03:10:16.858Z,85.9
2023-03-06T03:11:17.388Z,85.9
2023-03-06T03:12:16.781Z,85.8
2023-03-06T03:13:17.256Z,85.9
2023-03-06T03:14:16.797Z,85.8
2023-03-06T03:15:17.306Z,85.8
2023-03-06T03:16:17.004Z,85.9
2023-03-06T03:17:16.542Z,85.9
2023-03-06T03:18:17.040Z,85.9
2023-03-06T03:19:16.514Z,85.9
2023-03-06T03:20:17.050Z,86.1
2023-03-06T03:21:16.534Z,86.1
2023-03-06T03:22:17.234Z,86.2
2023-03-06T03:23:16.724Z,86.1
2023-03-06T03:24:17.306Z,86.1
2023-03-06T03:25:16.825Z,86.3
2023-03-06T03:26:17.364Z,86.4
2023-03-06T03:27:16.872Z,86.4
2023-03-06T03:28:17.356Z,86.4
2023-03-06T03:29:16.874Z,86.3
2023-03-06T03:30:17.374Z,86.4
2023-03-06T03:31:16.986Z,86.3
2023-03-06T03:32:16.621Z,86.3
2023-03-06T03:33:17.111Z,86.4
2023-03-06T03:34:16.601Z,86.4
2023-03-06T03:35:17.132Z,86.6
2023-03-06T03:36:16.610Z,86.5
2023-03-06T03:37:17.084Z,86.7
2023-03-06T03:38:16.594Z,86.8
2023-03-06T03:39:17.101Z,86.7
2023-03-06T03:40:16.630Z,86.8
2023-03-06T03:41:17.133Z,86.7
2023-03-06T03:42:16.792Z,86.7
2023-03-06T03:43:17.326Z,86.6
2023-03-06T03:44:16.811Z,86.6
2023-03-06T03:45:17.293Z,86.5
2023-03-06T03:46:16.844Z,86.6
2023-03-06T03:47:17.353Z,86.7
2023-03-06T03:48:16.845Z,86.8
2023-03-06T03:49:17.349Z,86.8
2023-03-06T03:50:16.860Z,86.6
2023-03-06T03:51:17.399Z,86.6
2023-03-06T03:52:16.810Z,86.6
2023-03-06T03:53:17.350Z,86.6
2023-03-06T03:54:16.865Z,86.6
2023-03-06T03:55:17.398Z,86.6
2023-03-06T03:56:16.895Z,86.7
2023-03-06T03:57:17.395Z,86.9
2023-03-06T03:58:16.919Z,86.8
2023-03-06T03:59:17.417Z,86.6
2023-03-06T04:00:16.952Z,86.8
2023-03-06T04:01:17.505Z,86.7
2023-03-06T04:02:17.045Z,86.8
2023-03-06T04:03:16.578Z,86.7
2023-03-06T04:04:17.109Z,86.6
2023-03-06T04:05:16.644Z,86.6
2023-03-06T04:06:17.132Z,86.5
2023-03-06T04:07:16.641Z,86.6
2023-03-06T04:08:17.242Z,86.7
2023-03-06T04:09:16.872Z,86.7
2023-03-06T04:10:17.398Z,86.8
2023-03-06T04:11:16.919Z,86.8
2023-03-06T04:12:16.813Z,86.8
2023-03-06T04:13:17.311Z,86.9
2023-03-06T04:14:16.796Z,86.8
2023-03-06T04:15:17.286Z,86.8
2023-03-06T04:16:16.812Z,86.9
2023-03-06T04:17:17.315Z,87.0
2023-03-06T04:18:16.809Z,87.0
2023-03-06T04:19:17.305Z,87.0
2023-03-06T04:20:16.824Z,87.3
2023-03-06T04:21:17.356Z,87.4
2023-03-06T04:22:16.666Z,87.6
2023-03-06T04:23:17.147Z,87.6
2023-03-06T04:24:16.652Z,87.6
2023-03-06T04:25:17.131Z,87.5
2023-03-06T04:26:16.638Z,87.5
2023-03-06T04:27:17.125Z,87.5
2023-03-06T04:28:16.595Z,87.5
2023-03-06T04:29:17.130Z,87.7
2023-03-06T04:30:16.620Z,87.7
2023-03-06T04:31:17.126Z,87.7
2023-03-06T04:32:17.345Z,87.6
2023-03-06T04:33:17.354Z,87.6
2023-03-06T04:34:16.901Z,87.5
2023-03-06T04:35:17.508Z,87.7
2023-03-06T04:36:17.036Z,87.7
2023-03-06T04:37:16.540Z,87.7
2023-03-06T04:38:17.051Z,87.8
2023-03-06T04:39:16.547Z,87.8
2023-03-06T04:40:17.138Z,87.7
2023-03-06T04:41:16.685Z,87.6
2023-03-06T04:42:17.064Z,87.8
2023-03-06T04:43:16.549Z,87.8
2023-03-06T04:44:17.069Z,87.7
2023-03-06T04:45:16.573Z,88.0
2023-03-06T04:46:17.045Z,87.9
2023-03-06T04:47:19.435Z,87.9
2023-03-06T04:48:16.991Z,88.0
2023-03-06T04:49:16.519Z,88.0
2023-03-06T04:50:17.021Z,87.9
2023-03-06T04:51:16.664Z,88.0
2023-03-06T04:52:17.080Z,87.9
2023-03-06T04:53:16.590Z,88.1
2023-03-06T04:54:19.214Z,88.1
2023-03-06T04:55:16.752Z,88.1
2023-03-06T04:56:17.255Z,88.1
2023-03-06T04:57:16.751Z,88.0
2023-03-06T04:58:17.295Z,88.1
2023-03-06T04:59:16.797Z,88.0
2023-03-06T05:00:17.294Z,88.2
2023-03-06T05:01:16.938Z,88.2
2023-03-06T05:02:17.512Z,88.1
2023-03-06T05:03:17.007Z,88.1
2023-03-06T05:04:16.515Z,88.1
2023-03-06T05:05:17.037Z,88.1
2023-03-06T05:06:16.532Z,88.0
2023-03-06T05:07:17.016Z,88.1
2023-03-06T05:08:16.539Z,88.1
2023-03-06T05:09:17.065Z,88.0
2023-03-06T05:10:16.569Z,88.0
2023-03-06T05:11:17.137Z,88.1
2023-03-06T05:12:16.576Z,88.1
2023-03-06T05:13:17.079Z,88.1
2023-03-06T05:14:16.586Z,88.2
2023-03-06T05:15:17.117Z,88.2
2023-03-06T05:16:16.713Z,88.2
2023-03-06T05:17:17.184Z,88.2
2023-03-06T05:18:16.688Z,88.3
2023-03-06T05:19:17.197Z,88.3
2023-03-06T05:20:16.774Z,88.3
2023-03-06T05:21:17.408Z,88.3
2023-03-06T05:22:16.609Z,88.2
2023-03-06T05:23:17.099Z,88.3
2023-03-06T05:24:16.610Z,88.3
2023-03-06T05:25:17.088Z,88.3
2023-03-06T05:26:16.587Z,88.3
2023-03-06T05:27:17.199Z,88.3
2023-03-06T05:28:16.671Z,88.4
2023-03-06T05:29:17.153Z,88.4
2023-03-06T05:30:16.676Z,88.4
2023-03-06T05:31:17.307Z,88.4
2023-03-06T05:32:17.146Z,88.4
2023-03-06T05:33:16.719Z,88.3
2023-03-06T05:34:17.226Z,88.3
2023-03-06T05:35:16.779Z,88.3
2023-03-06T05:36:17.355Z,88.3
2023-03-06T05:37:17.182Z,88.4
2023-03-06T05:38:17.055Z,88.3
2023-03-06T05:39:16.592Z,88.3
2023-03-06T05:40:17.118Z,88.2
2023-03-06T05:41:16.738Z,88.2
2023-03-06T05:42:17.237Z,88.2
2023-03-06T05:43:16.728Z,88.1
2023-03-06T05:44:17.234Z,88.3
2023-03-06T05:45:16.735Z,88.2
2023-03-06T05:46:17.347Z,88.3
2023-03-06T05:47:16.885Z,88.3
2023-03-06T05:48:17.378Z,88.3
2023-03-06T05:49:16.864Z,88.4
2023-03-06T05:50:17.400Z,88.4
2023-03-06T05:51:16.909Z,88.3
2023-03-06T05:52:16.762Z,88.3
2023-03-06T05:53:17.258Z,88.4
2023-03-06T05:54:16.782Z,88.3
2023-03-06T05:55:17.278Z,88.2
2023-03-06T05:56:16.796Z,88.2
2023-03-06T05:57:17.292Z,88.2
2023-03-06T05:58:16.803Z,88.2
2023-03-06T05:59:17.306Z,88.3
2023-03-06T06:00:16.835Z,88.4
2023-03-06T06:01:17.341Z,88.3
2023-03-06T06:02:16.883Z,88.4
2023-03-06T06:03:17.419Z,88.4
2023-03-06T06:04:16.951Z,88.4
2023-03-06T06:05:17.475Z,88.5
2023-03-06T06:06:16.987Z,88.4
2023-03-06T06:07:16.473Z,88.4
2023-03-06T06:08:16.969Z,88.3
2023-03-06T06:09:16.438Z,88.5
2023-03-06T06:10:16.975Z,88.5
2023-03-06T06:11:16.454Z,88.5
2023-03-06T06:12:17.412Z,88.4
2023-03-06T06:13:16.895Z,88.5
2023-03-06T06:14:17.394Z,88.5
2023-03-06T06:15:16.922Z,88.5
2023-03-06T06:16:17.631Z,88.6
2023-03-06T06:17:17.155Z,88.7
2023-03-06T06:18:16.648Z,88.7
2023-03-06T06:19:17.162Z,88.6
2023-03-06T06:20:16.647Z,88.6
2023-03-06T06:21:17.156Z,88.6
2023-03-06T06:22:16.554Z,88.6
2023-03-06T06:23:17.026Z,88.5
2023-03-06T06:24:16.504Z,88.5
2023-03-06T06:25:16.998Z,88.5
2023-03-06T06:26:16.486Z,88.5
2023-03-06T06:27:16.985Z,88.5
2023-03-06T06:28:16.516Z,88.5
2023-03-06T06:29:17.016Z,88.6
2023-03-06T06:30:16.515Z,88.6
2023-03-06T06:31:17.119Z,88.5
2023-03-06T06:32:17.433Z,88.6
2023-03-06T06:33:16.958Z,88.4
2023-03-06T06:34:17.460Z,88.4
2023-03-06T06:35:16.943Z,88.4
2023-03-06T06:36:17.470Z,88.5
2023-03-06T06:37:16.951Z,88.4
2023-03-06T06:38:17.438Z,88.4
2023-03-06T06:39:16.918Z,88.4
2023-03-06T06:40:17.415Z,88.4
2023-03-06T06:41:50.909Z,88.3
2023-03-06T06:42:35.292Z,88.2
2023-03-06T06:43:16.579Z,88.2
2023-03-06T06:44:17.075Z,88.2
2023-03-06T06:45:16.570Z,88.2
2023-03-06T06:46:59.198Z,88.0
2023-03-06T06:47:26.053Z,88.0
2023-03-06T06:48:18.167Z,88.0
2023-03-06T06:49:16.756Z,88.1
2023-03-06T06:50:17.281Z,87.9
2023-03-06T06:51:16.765Z,87.8
2023-03-06T06:52:17.071Z,87.7
2023-03-06T06:53:16.557Z,87.7
2023-03-06T06:54:17.036Z,87.8
2023-03-06T06:55:16.540Z,87.8
2023-03-06T06:56:17.061Z,87.8
2023-03-06T06:57:16.607Z,87.8
2023-03-06T06:58:17.112Z,87.8
2023-03-06T06:59:17.804Z,87.7
2023-03-06T07:00:17.328Z,87.7
2023-03-06T07:01:16.873Z,87.7
2023-03-06T07:02:17.185Z,87.8
2023-03-06T07:03:16.681Z,87.7
2023-03-06T07:04:17.291Z,87.7
2023-03-06T07:05:16.856Z,87.7
2023-03-06T07:06:17.352Z,87.7
2023-03-06T07:07:16.845Z,87.7
2023-03-06T07:08:17.382Z,87.7
2023-03-06T07:09:16.921Z,87.6
2023-03-06T07:10:21.124Z,87.6
2023-03-06T07:11:16.658Z,87.7
2023-03-06T07:12:17.225Z,87.7
2023-03-06T07:13:16.715Z,87.7
2023-03-06T07:14:17.227Z,87.7
2023-03-06T07:15:16.745Z,87.8
2023-03-06T07:16:17.407Z,87.7
2023-03-06T07:17:16.933Z,87.7
2023-03-06T07:18:17.441Z,87.6
2023-03-06T07:19:16.921Z,87.7
2023-03-06T07:20:17.388Z,87.6
2023-03-06T07:21:16.877Z,87.5
2023-03-06T07:22:16.574Z,87.4
2023-03-06T07:23:17.088Z,87.6
2023-03-06T07:24:16.589Z,87.6
2023-03-06T07:25:17.125Z,87.4
2023-03-06T07:26:16.605Z,87.4
2023-03-06T07:27:17.116Z,87.4
2023-03-06T07:28:19.629Z,87.4
2023-03-06T07:29:17.294Z,87.2
2023-03-06T07:30:16.785Z,87.2
2023-03-06T07:31:17.322Z,87.3
2023-03-06T07:32:16.950Z,87.3
2023-03-06T07:33:16.516Z,87.3
2023-03-06T07:34:17.001Z,87.3
2023-03-06T07:35:20.994Z,87.4
2023-03-06T07:36:16.623Z,87.1
2023-03-06T07:37:17.126Z,87.1
2023-03-06T07:38:16.646Z,87.1
2023-03-06T07:39:17.161Z,87.1
2023-03-06T07:40:16.656Z,87.1
2023-03-06T07:41:17.180Z,87.1
2023-03-06T07:42:16.617Z,87.1
2023-03-06T07:43:19.845Z,87.0
2023-03-06T07:44:17.350Z,86.9
2023-03-06T07:45:16.831Z,86.9
2023-03-06T07:46:17.602Z,86.9
2023-03-06T07:47:17.102Z,86.8
2023-03-06T07:48:16.604Z,86.8
2023-03-06T07:49:17.115Z,86.6
2023-03-06T07:50:16.626Z,86.7
2023-03-06T07:51:17.132Z,86.7
2023-03-06T07:52:17.020Z,86.5
2023-03-06T07:53:16.570Z,86.6
2023-03-06T07:54:17.129Z,86.5
2023-03-06T07:55:16.637Z,86.4
2023-03-06T07:56:17.161Z,86.2
2023-03-06T07:57:16.660Z,86.2
2023-03-06T07:58:17.148Z,86.1
2023-03-06T07:59:16.691Z,86.0
2023-03-06T08:00:17.197Z,86.1
2023-03-06T08:01:16.722Z,86.0
2023-03-06T08:02:17.354Z,85.6
2023-03-06T08:03:17.051Z,85.7
2023-03-06T08:04:16.686Z,85.6
2023-03-06T08:05:17.221Z,85.7
2023-03-06T08:06:16.743Z,85.6
2023-03-06T08:07:17.279Z,85.4
2023-03-06T08:08:16.802Z,85.2
2023-03-06T08:09:17.282Z,85.0
2023-03-06T08:10:16.806Z,85.0
2023-03-06T08:11:17.303Z,84.9
2023-03-06T08:12:16.958Z,84.8
2023-03-06T08:13:17.464Z,84.8
2023-03-06T08:14:17.004Z,84.6
2023-03-06T08:15:16.565Z,84.5
2023-03-06T08:16:17.247Z,84.6
2023-03-06T08:17:16.794Z,84.2
2023-03-06T08:18:17.299Z,84.2
2023-03-06T08:19:16.819Z,84.0
2023-03-06T08:20:17.335Z,84.1
2023-03-06T08:21:16.859Z,83.8
2023-03-06T08:22:17.444Z,83.7
2023-03-06T08:23:16.933Z,83.6
2023-03-06T08:24:17.414Z,83.5
2023-03-06T08:25:16.911Z,83.1
2023-03-06T08:26:17.454Z,83.0
2023-03-06T08:27:16.939Z,82.8
2023-03-06T08:28:17.495Z,82.9
2023-03-06T08:29:16.976Z,82.7
2023-03-06T08:30:16.513Z,82.7
2023-03-06T08:31:17.117Z,82.9
2023-03-06T08:32:17.447Z,82.4
2023-03-06T08:33:17.006Z,82.4
2023-03-06T08:34:16.502Z,82.5
2023-03-06T08:35:17.001Z,82.3
2023-03-06T08:36:16.511Z,82.4
2023-03-06T08:37:17.051Z,82.4
2023-03-06T08:38:16.583Z,82.3
2023-03-06T08:39:17.065Z,82.3
2023-03-06T08:40:16.513Z,82.6
2023-03-06T08:41:16.994Z,82.6
2023-03-06T08:42:16.506Z,82.5
2023-03-06T08:43:17.006Z,82.5
2023-03-06T08:44:16.561Z,82.6
2023-03-06T08:45:17.060Z,82.7
2023-03-06T08:46:16.593Z,82.3
2023-03-06T08:47:17.110Z,82.2
2023-03-06T08:48:16.609Z,82.2
2023-03-06T08:49:17.138Z,82.0
2023-03-06T08:50:16.663Z,81.7
2023-03-06T08:51:17.156Z,81.7
2023-03-06T08:52:16.995Z,82.0
2023-03-06T08:53:16.512Z,81.4
2023-03-06T08:54:17.050Z,80.9
2023-03-06T08:55:16.560Z,80.8
2023-03-06T08:56:17.070Z,80.4
2023-03-06T08:57:16.595Z,80.5
2023-03-06T08:58:17.104Z,80.5
2023-03-06T08:59:16.596Z,80.6
2023-03-06T09:00:17.212Z,80.3
2023-03-06T09:01:16.886Z,80.6
2023-03-06T09:02:16.688Z,80.3
2023-03-06T09:03:17.194Z,79.9
2023-03-06T09:04:16.714Z,80.3
2023-03-06T09:05:17.182Z,80.2
2023-03-06T09:06:16.700Z,79.8
2023-03-06T09:07:17.195Z,79.9
2023-03-06T09:08:16.703Z,79.8
2023-03-06T09:09:17.199Z,80.0
2023-03-06T09:10:16.897Z,79.9
2023-03-06T09:11:17.462Z,79.7
2023-03-06T09:12:16.835Z,80.0
2023-03-06T09:13:17.354Z,79.8
2023-03-06T09:14:16.826Z,80.0
2023-03-06T09:15:17.334Z,80.0
2023-03-06T09:16:16.942Z,79.9
2023-03-06T09:17:17.540Z,80.0
2023-03-06T09:18:17.062Z,79.9
2023-03-06T09:19:16.620Z,79.9
2023-03-06T09:20:17.140Z,80.1
2023-03-06T09:21:16.617Z,79.8
2023-03-06T09:22:17.364Z,79.9
2023-03-06T09:23:16.855Z,80.3
2023-03-06T09:24:17.364Z,80.1
2023-03-06T09:25:16.862Z,80.2
2023-03-06T09:26:17.395Z,80.3
2023-03-06T09:27:16.905Z,80.2
2023-03-06T09:28:17.430Z,80.3
2023-03-06T09:29:16.934Z,80.4
2023-03-06T09:30:17.438Z,80.6
2023-03-06T09:31:17.068Z,80.5
2023-03-06T09:32:16.849Z,80.5
2023-03-06T09:33:17.364Z,80.7
2023-03-06T09:34:16.881Z,80.7
2023-03-06T09:35:17.510Z,80.7
2023-03-06T09:36:17.038Z,81.0
2023-03-06T09:37:17.571Z,80.8
2023-03-06T09:38:17.101Z,80.7
2023-03-06T09:39:16.635Z,81.0
2023-03-06T09:40:17.169Z,81.0
2023-03-06T09:41:16.684Z,81.0
2023-03-06T09:42:17.345Z,81.4
2023-03-06T09:43:16.835Z,81.5
2023-03-06T09:44:17.326Z,81.8
2023-03-06T09:45:16.855Z,82.0
2023-03-06T09:46:17.465Z,81.8
2023-03-06T09:47:16.972Z,81.5
2023-03-06T09:48:16.461Z,81.3
2023-03-06T09:49:17.005Z,81.2
2023-03-06T09:50:16.544Z,80.9
2023-03-06T09:51:17.064Z,81.0
2023-03-06T09:52:17.395Z,81.1
2023-03-06T09:53:16.904Z,81.2
2023-03-06T09:54:17.419Z,81.3
2023-03-06T09:55:16.955Z,81.3
2023-03-06T09:56:17.545Z,81.7
2023-03-06T09:57:17.057Z,80.9
2023-03-06T09:58:16.540Z,80.9
2023-03-06T09:59:17.069Z,80.7
2023-03-06T10:00:16.582Z,80.9
2023-03-06T10:01:17.116Z,81.0
2023-03-06T10:02:16.845Z,81.0
2023-03-06T10:03:17.672Z,81.1
2023-03-06T10:04:17.283Z,81.2
2023-03-06T10:05:16.798Z,81.4
2023-03-06T10:06:17.312Z,81.1
2023-03-06T10:07:16.816Z,81.3
2023-03-06T10:08:17.355Z,81.3
2023-03-06T10:09:16.859Z,81.5
2023-03-06T10:10:17.377Z,81.7
2023-03-06T10:11:16.877Z,81.8
2023-03-06T10:12:16.984Z,81.7
2023-03-06T10:13:16.461Z,81.7
2023-03-06T10:14:17.011Z,81.8
2023-03-06T10:15:16.562Z,82.0
2023-03-06T10:16:17.276Z,82.1
2023-03-06T10:17:16.914Z,82.3
2023-03-06T10:18:17.446Z,82.4
2023-03-06T10:19:16.998Z,82.8
2023-03-06T10:20:16.520Z,82.9
2023-03-06T10:21:19.703Z,82.9
2023-03-06T10:22:17.486Z,82.8
2023-03-06T10:24:17.061Z,82.5
2023-03-06T10:25:16.567Z,82.5
2023-03-06T10:26:17.252Z,82.8
2023-03-06T10:27:17.012Z,82.6
2023-03-06T10:28:16.584Z,82.4
2023-03-06T10:29:17.086Z,82.5
2023-03-06T10:30:16.617Z,82.5
2023-03-06T10:31:17.269Z,82.5
2023-03-06T10:32:16.885Z,82.2
2023-03-06T10:33:17.478Z,82.5
2023-03-06T10:34:17.004Z,82.4
2023-03-06T10:35:16.558Z,82.3
2023-03-06T10:36:17.048Z,82.3
2023-03-06T10:37:16.592Z,82.4
2023-03-06T10:38:17.108Z,82.3
2023-03-06T10:39:16.670Z,82.0
2023-03-06T10:40:17.164Z,82.1
2023-03-06T10:41:16.666Z,82.2
2023-03-06T10:42:17.459Z,82.1
2023-03-06T10:43:16.971Z,82.3
2023-03-06T10:44:16.487Z,82.0
2023-03-06T10:45:17.007Z,82.0
2023-03-06T10:46:16.638Z,82.0
2023-03-06T10:47:17.198Z,81.9
2023-03-06T10:48:16.734Z,81.6
2023-03-06T10:49:17.231Z,81.6
2023-03-06T10:50:16.728Z,81.7
2023-03-06T10:51:19.094Z,81.9
2023-03-06T10:52:16.593Z,81.9
2023-03-06T10:53:17.112Z,81.7
2023-03-06T10:54:16.617Z,81.5
2023-03-06T10:55:17.122Z,81.3
2023-03-06T10:56:16.616Z,81.4
2023-03-06T10:57:17.114Z,81.4
2023-03-06T10:58:16.631Z,81.3
2023-03-06T10:59:17.160Z,81.0
2023-03-06T11:00:16.677Z,81.1
2023-03-06T11:01:17.248Z,80.9
2023-03-06T11:02:16.860Z,81.1
2023-03-06T11:03:17.332Z,81.1
2023-03-06T11:04:16.947Z,81.0
2023-03-06T11:05:17.485Z,80.9
2023-03-06T11:06:16.975Z,80.7
2023-03-06T11:07:16.503Z,80.6
2023-03-06T11:08:16.995Z,80.6
2023-03-06T11:09:16.504Z,80.4
2023-03-06T11:10:16.985Z,80.3
2023-03-06T11:11:36.999Z,80.2
2023-03-06T11:12:16.741Z,79.9
2023-03-06T11:13:17.226Z,80.2
2023-03-06T11:14:16.776Z,80.0
2023-03-06T11:15:17.271Z,80.2
2023-03-06T11:16:16.854Z,79.8
2023-03-06T11:17:17.356Z,79.1
2023-03-06T11:18:16.879Z,79.3
2023-03-06T11:19:17.374Z,79.4
2023-03-06T11:20:16.853Z,79.3
2023-03-06T11:21:17.424Z,79.1
2023-03-06T11:22:17.011Z,78.8
2023-03-06T11:23:16.490Z,79.0
2023-03-06T11:24:17.007Z,78.8
2023-03-06T11:25:16.495Z,78.8
2023-03-06T11:26:17.080Z,78.9
2023-03-06T11:27:16.617Z,78.8
2023-03-06T11:28:17.123Z,78.6
2023-03-06T11:29:16.911Z,78.5
2023-03-06T11:30:16.468Z,78.0
2023-03-06T11:31:17.029Z,78.1
2023-03-06T11:32:16.607Z,78.2
2023-03-06T11:33:18.212Z,78.4
2023-03-06T11:34:16.689Z,77.6
2023-03-06T11:35:17.191Z,77.5
2023-03-06T11:36:16.682Z,78.0
2023-03-06T11:37:17.209Z,78.0
2023-03-06T11:38:16.689Z,77.9
2023-03-06T11:39:17.182Z,77.7
2023-03-06T11:40:16.681Z,77.3
2023-03-06T11:41:17.178Z,77.4
2023-03-06T11:42:17.207Z,77.4
2023-03-06T11:43:16.711Z,77.1
2023-03-06T11:44:17.212Z,76.6
2023-03-06T11:45:16.716Z,76.4
2023-03-06T11:46:17.321Z,75.9
2023-03-06T11:47:16.838Z,75.7
2023-03-06T11:48:17.321Z,76.0
2023-03-06T11:49:16.886Z,76.4
2023-03-06T11:50:17.543Z,75.4
2023-03-06T11:51:17.058Z,75.1
2023-03-06T11:52:17.243Z,74.9
2023-03-06T11:53:16.720Z,75.2
2023-03-06T11:54:17.237Z,75.5
2023-03-06T11:55:16.813Z,75.5
2023-03-06T11:56:17.542Z,74.3
2023-03-06T11:57:17.044Z,74.2
2023-03-06T11:58:16.529Z,74.4
2023-03-06T11:59:17.039Z,73.9
2023-03-06T12:00:16.643Z,74.3
2023-03-06T12:01:17.160Z,74.4
2023-03-06T12:02:17.380Z,74.4
2023-03-06T12:03:16.875Z,75.0
2023-03-06T12:04:17.358Z,74.9
2023-03-06T12:05:16.917Z,74.7
2023-03-06T12:06:17.479Z,74.0
2023-03-06T12:07:17.008Z,74.3
2023-03-06T12:08:16.500Z,74.1
2023-03-06T12:09:17.010Z,74.5
2023-03-06T12:10:16.662Z,75.1
2023-03-06T12:13:17.258Z,75.4
2023-03-06T12:14:16.758Z,75.1
2023-03-06T12:15:17.258Z,74.8
2023-03-06T12:16:16.753Z,75.0
2023-03-06T12:17:17.236Z,75.2
2023-03-06T12:18:16.742Z,75.2
2023-03-06T12:19:17.235Z,74.1
2023-03-06T12:20:16.724Z,73.8
2023-03-06T12:21:17.249Z,73.8
2023-03-06T12:22:16.653Z,74.1
2023-03-06T12:23:17.140Z,74.0
2023-03-06T12:24:16.645Z,74.3
2023-03-06T12:25:17.142Z,74.0
2023-03-06T12:26:16.637Z,74.0
2023-03-06T12:27:17.138Z,74.2
2023-03-06T12:28:16.678Z,73.9
2023-03-06T12:29:17.162Z,73.8
2023-03-06T12:30:16.630Z,74.4
2023-03-06T12:31:17.134Z,73.8
2023-03-06T12:32:16.878Z,74.0
2023-03-06T12:33:16.535Z,74.1
2023-03-06T12:34:16.997Z,74.3
2023-03-06T12:35:16.652Z,74.2
2023-03-06T12:36:17.231Z,74.1
2023-03-06T12:37:16.740Z,74.3
2023-03-06T12:38:17.321Z,74.2
2023-03-06T12:39:16.860Z,74.0
2023-03-06T12:40:17.924Z,74.0
2023-03-06T12:41:16.702Z,74.0
2023-03-06T12:42:23.848Z,74.0
2023-03-06T12:43:17.390Z,73.8
2023-03-06T12:44:16.927Z,73.8
2023-03-06T12:45:17.447Z,73.9
2023-03-06T12:46:17.064Z,73.0
2023-03-06T12:47:16.560Z,73.2
2023-03-06T12:48:17.050Z,73.0
2023-03-06T12:49:32.256Z,73.2
2023-03-06T12:50:17.430Z,73.2
2023-03-06T12:51:16.939Z,73.1
2023-03-06T12:52:24.927Z,72.9
2023-03-06T12:53:17.133Z,72.7
2023-03-06T12:54:16.631Z,72.9
2023-03-06T12:55:17.135Z,72.9
2023-03-06T12:56:16.643Z,72.2
2023-03-06T12:58:17.238Z,72.6
2023-03-06T12:59:16.718Z,71.8
2023-03-06T13:00:17.252Z,71.8
2023-03-06T13:01:16.834Z,72.0
2023-03-06T13:02:17.356Z,71.8
2023-03-06T13:03:16.865Z,71.5
2023-03-06T13:04:17.396Z,71.6
2023-03-06T13:05:16.936Z,72.3
2023-03-06T13:06:17.613Z,71.9
2023-03-06T13:07:17.129Z,71.8
2023-03-06T13:08:16.643Z,71.5
2023-03-06T13:09:17.142Z,71.8
2023-03-06T13:10:16.673Z,72.0
2023-03-06T13:11:17.206Z,72.0
2023-03-06T13:12:17.440Z,72.2
2023-03-06T13:13:16.930Z,72.4
2023-03-06T13:14:17.457Z,72.3
2023-03-06T13:15:16.952Z,72.2
2023-03-06T13:16:17.472Z,71.8
2023-03-06T13:17:16.958Z,71.9
2023-03-06T13:18:17.469Z,71.9
2023-03-06T13:19:16.968Z,71.7
2023-03-06T13:20:17.464Z,70.5
2023-03-06T13:21:16.950Z,70.4
2023-03-06T13:22:17.118Z,70.7